sensor_id;sensor_type;location;lat;lon;timestamp;P1;durP1;ratioP1;P2;durP2;ratioP2
46439;SDS011;32138;50.966;6.968;2023-03-23T00:00:27;3.88;;;2.05;;
46439;SDS011;32138;50.966;6.968;2023-03-23T00:01:28;4.38;;;2.20;;
46439;SDS011;32138;50.966;6.968;2023-03-23T00:02:36;4.30;;;2.15;;
46439;SDS011;32138;50.966;6.968;2023-03-23T00:03:38;6.57;;;1.85;;
46439;SDS011;32138;50.966;6.968;2023-03-23T00:04:40;5.22;;;2.03;;
46439;SDS011;32138;50.966;6.968;2023-03-23T00:05:42;4.35;;;2.05;;
46439;SDS011;32138;50.966;6.968;2023-03-23T00:06:50;4.80;;;2.33;;
46439;SDS011;32138;50.966;6.968;2023-03-23T00:07:50;6.03;;;1.85;;
46439;SDS011;32138;50.966;6.968;2023-03-23T00:08:52;4.53;;;2.00;;
46439;SDS011;32138;50.966;6.968;2023-03-23T00:09:59;3.72;;;2.00;;
46439;SDS011;32138;50.966;6.968;2023-03-23T00:11:02;4.95;;;2.10;;
46439;SDS011;32138;50.966;6.968;2023-03-23T00:12:04;3.30;;;2.00;;
46439;SDS011;32138;50.966;6.968;2023-03-23T00:13:05;3.60;;;1.95;;
46439;SDS011;32138;50.966;6.968;2023-03-23T00:14:06;6.07;;;2.30;;
46439;SDS011;32138;50.966;6.968;2023-03-23T00:15:13;3.72;;;2.10;;
46439;SDS011;32138;50.966;6.968;2023-03-23T00:16:16;7.28;;;2.67;;
46439;SDS011;32138;50.966;6.968;2023-03-23T00:17:29;7.43;;;1.98;;
46439;SDS011;32138;50.966;6.968;2023-03-23T00:18:32;5.35;;;2.20;;
46439;SDS011;32138;50.966;6.968;2023-03-23T00:19:36;3.72;;;1.75;;
46439;SDS011;32138;50.966;6.968;2023-03-23T00:20:52;3.22;;;1.83;;
46439;SDS011;32138;50.966;6.968;2023-03-23T00:21:55;6.30;;;2.08;;
46439;SDS011;32138;50.966;6.968;2023-03-23T00:22:56;4.05;;;2.25;;
46439;SDS011;32138;50.966;6.968;2023-03-23T00:24:07;3.47;;;1.75;;
46439;SDS011;32138;50.966;6.968;2023-03-23T00:25:11;3.30;;;1.65;;
46439;SDS011;32138;50.966;6.968;2023-03-23T00:26:12;4.07;;;2.08;;
46439;SDS011;32138;50.966;6.968;2023-03-23T00:27:13;4.60;;;1.58;;
46439;SDS011;32138;50.966;6.968;2023-03-23T00:28:15;4.03;;;1.45;;
46439;SDS011;32138;50.966;6.968;2023-03-23T00:29:18;2.67;;;1.33;;
46439;SDS011;32138;50.966;6.968;2023-03-23T00:30:21;2.67;;;1.27;;
46439;SDS011;32138;50.966;6.968;2023-03-23T00:31:22;2.22;;;1.30;;
46439;SDS011;32138;50.966;6.968;2023-03-23T00:32:23;4.38;;;1.40;;
46439;SDS011;32138;50.966;6.968;2023-03-23T00:33:29;3.78;;;1.48;;
46439;SDS011;32138;50.966;6.968;2023-03-23T00:34:38;2.58;;;1.60;;
46439;SDS011;32138;50.966;6.968;2023-03-23T00:35:41;3.90;;;1.60;;
46439;SDS011;32138;50.966;6.968;2023-03-23T00:36:48;3.40;;;1.45;;
46439;SDS011;32138;50.966;6.968;2023-03-23T00:37:51;3.03;;;1.83;;
46439;SDS011;32138;50.966;6.968;2023-03-23T00:38:51;3.28;;;1.52;;
46439;SDS011;32138;50.966;6.968;2023-03-23T00:39:52;2.58;;;1.40;;
46439;SDS011;32138;50.966;6.968;2023-03-23T00:40:57;5.50;;;1.33;;
46439;SDS011;32138;50.966;6.968;2023-03-23T00:42:02;2.25;;;1.50;;
46439;SDS011;32138;50.966;6.968;2023-03-23T00:43:03;3.63;;;1.48;;
46439;SDS011;32138;50.966;6.968;2023-03-23T00:44:04;3.58;;;1.17;;
46439;SDS011;32138;50.966;6.968;2023-03-23T00:45:05;2.92;;;1.23;;
46439;SDS011;32138;50.966;6.968;2023-03-23T00:46:10;2.53;;;1.20;;
46439;SDS011;32138;50.966;6.968;2023-03-23T00:47:11;2.15;;;1.42;;
46439;SDS011;32138;50.966;6.968;2023-03-23T00:48:12;2.08;;;1.27;;
46439;SDS011;32138;50.966;6.968;2023-03-23T00:49:13;2.88;;;1.30;;
46439;SDS011;32138;50.966;6.968;2023-03-23T00:50:16;4.22;;;2.08;;
46439;SDS011;32138;50.966;6.968;2023-03-23T00:51:18;4.82;;;1.30;;
46439;SDS011;32138;50.966;6.968;2023-03-23T00:52:19;2.95;;;1.52;;
46439;SDS011;32138;50.966;6.968;2023-03-23T00:53:20;6.05;;;1.80;;
46439;SDS011;32138;50.966;6.968;2023-03-23T00:54:21;3.00;;;1.13;;
46439;SDS011;32138;50.966;6.968;2023-03-23T00:55:23;7.25;;;1.40;;
46439;SDS011;32138;50.966;6.968;2023-03-23T00:56:25;1.83;;;1.20;;
46439;SDS011;32138;50.966;6.968;2023-03-23T00:57:26;2.30;;;1.77;;
46439;SDS011;32138;50.966;6.968;2023-03-23T00:58:27;2.25;;;1.25;;
46439;SDS011;32138;50.966;6.968;2023-03-23T00:59:28;3.30;;;1.40;;
46439;SDS011;32138;50.966;6.968;2023-03-23T01:00:28;3.60;;;1.50;;
46439;SDS011;32138;50.966;6.968;2023-03-23T01:01:29;1.65;;;1.20;;
46439;SDS011;32138;50.966;6.968;2023-03-23T01:02:30;4.43;;;1.40;;
46439;SDS011;32138;50.966;6.968;2023-03-23T01:03:31;2.25;;;1.50;;
46439;SDS011;32138;50.966;6.968;2023-03-23T01:04:34;3.08;;;1.33;;
46439;SDS011;32138;50.966;6.968;2023-03-23T01:05:39;2.85;;;1.30;;
46439;SDS011;32138;50.966;6.968;2023-03-23T01:06:41;3.13;;;1.52;;
46439;SDS011;32138;50.966;6.968;2023-03-23T01:07:44;3.47;;;1.40;;
46439;SDS011;32138;50.966;6.968;2023-03-23T01:08:45;2.13;;;1.30;;
46439;SDS011;32138;50.966;6.968;2023-03-23T01:09:46;4.25;;;1.52;;
46439;SDS011;32138;50.966;6.968;2023-03-23T01:10:48;2.72;;;1.48;;
46439;SDS011;32138;50.966;6.968;2023-03-23T01:11:50;3.38;;;1.48;;
46439;SDS011;32138;50.966;6.968;2023-03-23T01:12:52;3.03;;;1.65;;
46439;SDS011;32138;50.966;6.968;2023-03-23T01:13:53;3.17;;;1.58;;
46439;SDS011;32138;50.966;6.968;2023-03-23T01:14:54;2.85;;;1.30;;
46439;SDS011;32138;50.966;6.968;2023-03-23T01:15:55;3.75;;;1.40;;
46439;SDS011;32138;50.966;6.968;2023-03-23T01:16:56;2.47;;;1.55;;
46439;SDS011;32138;50.966;6.968;2023-03-23T01:17:57;1.63;;;0.95;;
46439;SDS011;32138;50.966;6.968;2023-03-23T01:18:58;2.50;;;1.50;;
46439;SDS011;32138;50.966;6.968;2023-03-23T01:19:58;2.45;;;1.42;;
46439;SDS011;32138;50.966;6.968;2023-03-23T01:21:06;3.63;;;1.42;;
46439;SDS011;32138;50.966;6.968;2023-03-23T01:22:10;4.25;;;1.90;;
46439;SDS011;32138;50.966;6.968;2023-03-23T01:23:11;1.83;;;1.13;;
46439;SDS011;32138;50.966;6.968;2023-03-23T01:24:11;2.10;;;1.20;;
46439;SDS011;32138;50.966;6.968;2023-03-23T01:25:12;1.67;;;1.27;;
46439;SDS011;32138;50.966;6.968;2023-03-23T01:26:15;3.55;;;1.70;;
46439;SDS011;32138;50.966;6.968;2023-03-23T01:27:20;4.90;;;1.50;;
46439;SDS011;32138;50.966;6.968;2023-03-23T01:28:21;4.10;;;1.60;;
46439;SDS011;32138;50.966;6.968;2023-03-23T01:29:21;2.72;;;1.27;;
46439;SDS011;32138;50.966;6.968;2023-03-23T01:30:22;1.80;;;1.30;;
46439;SDS011;32138;50.966;6.968;2023-03-23T01:31:24;6.22;;;1.80;;
46439;SDS011;32138;50.966;6.968;2023-03-23T01:32:26;2.20;;;1.63;;
46439;SDS011;32138;50.966;6.968;2023-03-23T01:33:28;3.97;;;1.30;;
46439;SDS011;32138;50.966;6.968;2023-03-23T01:34:30;1.65;;;1.10;;
46439;SDS011;32138;50.966;6.968;2023-03-23T01:35:31;4.47;;;1.77;;
46439;SDS011;32138;50.966;6.968;2023-03-23T01:36:32;3.75;;;1.30;;
46439;SDS011;32138;50.966;6.968;2023-03-23T01:37:32;4.32;;;1.40;;
46439;SDS011;32138;50.966;6.968;2023-03-23T01:38:34;2.15;;;1.38;;
46439;SDS011;32138;50.966;6.968;2023-03-23T01:39:35;2.30;;;1.48;;
46439;SDS011;32138;50.966;6.968;2023-03-23T01:40:37;3.55;;;1.80;;
46439;SDS011;32138;50.966;6.968;2023-03-23T01:41:38;1.90;;;1.50;;
46439;SDS011;32138;50.966;6.968;2023-03-23T01:42:40;2.22;;;1.30;;
46439;SDS011;32138;50.966;6.968;2023-03-23T01:45:29;3.05;;;1.95;;
46439;SDS011;32138;50.966;6.968;2023-03-23T01:46:40;3.58;;;1.75;;
46439;SDS011;32138;50.966;6.968;2023-03-23T01:47:41;3.28;;;1.80;;
46439;SDS011;32138;50.966;6.968;2023-03-23T01:48:42;6.72;;;2.40;;
46439;SDS011;32138;50.966;6.968;2023-03-23T01:49:44;2.95;;;1.70;;
46439;SDS011;32138;50.966;6.968;2023-03-23T01:50:52;4.07;;;2.08;;
46439;SDS011;32138;50.966;6.968;2023-03-23T01:52:04;3.17;;;1.77;;
46439;SDS011;32138;50.966;6.968;2023-03-23T01:53:09;4.20;;;2.50;;
46439;SDS011;32138;50.966;6.968;2023-03-23T01:54:12;3.25;;;1.70;;
46439;SDS011;32138;50.966;6.968;2023-03-23T01:55:19;3.55;;;1.92;;
46439;SDS011;32138;50.966;6.968;2023-03-23T01:56:22;5.22;;;2.20;;
46439;SDS011;32138;50.966;6.968;2023-03-23T01:57:29;4.20;;;2.20;;
46439;SDS011;32138;50.966;6.968;2023-03-23T01:58:31;2.83;;;1.63;;
46439;SDS011;32138;50.966;6.968;2023-03-23T01:59:35;3.60;;;2.03;;
46439;SDS011;32138;50.966;6.968;2023-03-23T02:00:37;3.40;;;1.90;;
46439;SDS011;32138;50.966;6.968;2023-03-23T02:01:40;4.72;;;2.08;;
46439;SDS011;32138;50.966;6.968;2023-03-23T02:02:45;5.00;;;2.13;;
46439;SDS011;32138;50.966;6.968;2023-03-23T02:03:50;3.75;;;1.83;;
46439;SDS011;32138;50.966;6.968;2023-03-23T02:04:55;2.70;;;1.65;;
46439;SDS011;32138;50.966;6.968;2023-03-23T02:06:00;2.67;;;1.50;;
46439;SDS011;32138;50.966;6.968;2023-03-23T02:07:00;2.30;;;1.60;;
46439;SDS011;32138;50.966;6.968;2023-03-23T02:08:02;3.72;;;1.92;;
46439;SDS011;32138;50.966;6.968;2023-03-23T02:09:05;4.88;;;2.53;;
46439;SDS011;32138;50.966;6.968;2023-03-23T02:10:06;3.13;;;1.90;;
46439;SDS011;32138;50.966;6.968;2023-03-23T02:11:14;4.82;;;1.92;;
46439;SDS011;32138;50.966;6.968;2023-03-23T02:12:20;4.38;;;1.60;;
46439;SDS011;32138;50.966;6.968;2023-03-23T02:13:21;3.78;;;2.47;;
46439;SDS011;32138;50.966;6.968;2023-03-23T02:14:23;3.53;;;1.85;;
46439;SDS011;32138;50.966;6.968;2023-03-23T02:15:27;2.63;;;1.92;;
46439;SDS011;32138;50.966;6.968;2023-03-23T02:18:11;3.47;;;1.95;;
46439;SDS011;32138;50.966;6.968;2023-03-23T02:27:49;4.53;;;1.90;;
46439;SDS011;32138;50.966;6.968;2023-03-23T02:33:08;2.95;;;1.63;;
46439;SDS011;32138;50.966;6.968;2023-03-23T02:34:14;3.17;;;1.55;;
46439;SDS011;32138;50.966;6.968;2023-03-23T02:35:21;3.20;;;1.70;;
46439;SDS011;32138;50.966;6.968;2023-03-23T02:36:34;2.95;;;1.30;;
46439;SDS011;32138;50.966;6.968;2023-03-23T02:37:53;3.75;;;1.80;;
46439;SDS011;32138;50.966;6.968;2023-03-23T02:39:06;3.25;;;1.65;;
46439;SDS011;32138;50.966;6.968;2023-03-23T02:40:21;4.38;;;1.70;;
46439;SDS011;32138;50.966;6.968;2023-03-23T02:41:30;3.22;;;1.90;;
46439;SDS011;32138;50.966;6.968;2023-03-23T02:42:37;2.85;;;1.67;;
46439;SDS011;32138;50.966;6.968;2023-03-23T02:43:42;5.55;;;1.85;;
46439;SDS011;32138;50.966;6.968;2023-03-23T02:44:45;3.15;;;1.80;;
46439;SDS011;32138;50.966;6.968;2023-03-23T02:45:49;3.33;;;1.83;;
46439;SDS011;32138;50.966;6.968;2023-03-23T02:46:52;3.38;;;2.10;;
46439;SDS011;32138;50.966;6.968;2023-03-23T02:47:54;5.80;;;2.10;;
46439;SDS011;32138;50.966;6.968;2023-03-23T02:48:56;3.45;;;1.63;;
46439;SDS011;32138;50.966;6.968;2023-03-23T02:49:58;4.18;;;2.03;;
46439;SDS011;32138;50.966;6.968;2023-03-23T02:50:59;2.85;;;1.83;;
46439;SDS011;32138;50.966;6.968;2023-03-23T02:52:03;4.03;;;1.63;;
46439;SDS011;32138;50.966;6.968;2023-03-23T02:53:08;3.65;;;1.50;;
46439;SDS011;32138;50.966;6.968;2023-03-23T02:54:12;3.47;;;1.35;;
46439;SDS011;32138;50.966;6.968;2023-03-23T02:55:16;1.98;;;1.33;;
46439;SDS011;32138;50.966;6.968;2023-03-23T02:56:19;4.38;;;1.73;;
46439;SDS011;32138;50.966;6.968;2023-03-23T02:57:23;3.83;;;1.67;;
46439;SDS011;32138;50.966;6.968;2023-03-23T02:58:26;2.90;;;1.50;;
46439;SDS011;32138;50.966;6.968;2023-03-23T02:59:27;4.10;;;1.50;;
46439;SDS011;32138;50.966;6.968;2023-03-23T03:00:28;2.47;;;1.63;;
46439;SDS011;32138;50.966;6.968;2023-03-23T03:02:34;2.10;;;1.30;;
46439;SDS011;32138;50.966;6.968;2023-03-23T03:03:40;5.35;;;1.60;;
46439;SDS011;32138;50.966;6.968;2023-03-23T03:04:42;5.47;;;1.70;;
46439;SDS011;32138;50.966;6.968;2023-03-23T03:06:40;5.75;;;1.67;;
46439;SDS011;32138;50.966;6.968;2023-03-23T03:12:10;4.07;;;1.80;;
46439;SDS011;32138;50.966;6.968;2023-03-23T03:13:50;3.25;;;1.35;;
46439;SDS011;32138;50.966;6.968;2023-03-23T03:16:41;4.50;;;2.10;;
46439;SDS011;32138;50.966;6.968;2023-03-23T03:18:22;2.95;;;1.58;;
46439;SDS011;32138;50.966;6.968;2023-03-23T03:20:33;3.47;;;1.50;;
46439;SDS011;32138;50.966;6.968;2023-03-23T03:21:43;4.20;;;1.30;;
46439;SDS011;32138;50.966;6.968;2023-03-23T03:22:46;2.90;;;1.27;;
46439;SDS011;32138;50.966;6.968;2023-03-23T03:23:47;2.53;;;1.60;;
46439;SDS011;32138;50.966;6.968;2023-03-23T03:24:51;2.30;;;1.50;;
46439;SDS011;32138;50.966;6.968;2023-03-23T03:25:52;4.07;;;1.58;;
46439;SDS011;32138;50.966;6.968;2023-03-23T03:26:58;4.13;;;1.98;;
46439;SDS011;32138;50.966;6.968;2023-03-23T03:28:00;2.65;;;1.50;;
46439;SDS011;32138;50.966;6.968;2023-03-23T03:29:03;2.78;;;1.48;;
46439;SDS011;32138;50.966;6.968;2023-03-23T03:30:05;2.47;;;1.45;;
46439;SDS011;32138;50.966;6.968;2023-03-23T03:31:12;2.00;;;1.13;;
46439;SDS011;32138;50.966;6.968;2023-03-23T03:32:16;4.00;;;1.85;;
46439;SDS011;32138;50.966;6.968;2023-03-23T03:33:23;3.80;;;1.52;;
46439;SDS011;32138;50.966;6.968;2023-03-23T03:34:27;2.60;;;1.40;;
46439;SDS011;32138;50.966;6.968;2023-03-23T03:35:28;2.65;;;1.63;;
46439;SDS011;32138;50.966;6.968;2023-03-23T03:36:34;2.42;;;1.40;;
46439;SDS011;32138;50.966;6.968;2023-03-23T03:37:36;3.40;;;1.55;;
46439;SDS011;32138;50.966;6.968;2023-03-23T03:38:43;2.92;;;1.77;;
46439;SDS011;32138;50.966;6.968;2023-03-23T03:39:48;3.90;;;1.40;;
46439;SDS011;32138;50.966;6.968;2023-03-23T03:40:49;2.83;;;1.25;;
46439;SDS011;32138;50.966;6.968;2023-03-23T03:41:50;1.90;;;1.20;;
46439;SDS011;32138;50.966;6.968;2023-03-23T03:42:50;1.95;;;1.30;;
46439;SDS011;32138;50.966;6.968;2023-03-23T03:43:51;3.88;;;1.88;;
46439;SDS011;32138;50.966;6.968;2023-03-23T03:44:52;1.95;;;1.17;;
46439;SDS011;32138;50.966;6.968;2023-03-23T03:45:53;2.38;;;1.25;;
46439;SDS011;32138;50.966;6.968;2023-03-23T03:46:53;3.47;;;1.50;;
46439;SDS011;32138;50.966;6.968;2023-03-23T03:47:54;2.35;;;1.33;;
46439;SDS011;32138;50.966;6.968;2023-03-23T03:48:55;2.78;;;1.23;;
46439;SDS011;32138;50.966;6.968;2023-03-23T03:49:57;2.35;;;1.48;;
46439;SDS011;32138;50.966;6.968;2023-03-23T03:50:58;1.27;;;0.95;;
46439;SDS011;32138;50.966;6.968;2023-03-23T03:52:00;1.25;;;0.93;;
46439;SDS011;32138;50.966;6.968;2023-03-23T03:53:01;1.70;;;1.00;;
46439;SDS011;32138;50.966;6.968;2023-03-23T03:54:03;2.00;;;1.33;;
46439;SDS011;32138;50.966;6.968;2023-03-23T03:55:04;4.18;;;1.48;;
46439;SDS011;32138;50.966;6.968;2023-03-23T03:56:06;1.95;;;1.23;;
46439;SDS011;32138;50.966;6.968;2023-03-23T03:57:07;3.53;;;1.42;;
46439;SDS011;32138;50.966;6.968;2023-03-23T03:58:08;2.20;;;1.02;;
46439;SDS011;32138;50.966;6.968;2023-03-23T03:59:09;2.08;;;1.13;;
46439;SDS011;32138;50.966;6.968;2023-03-23T04:00:10;2.13;;;0.98;;
46439;SDS011;32138;50.966;6.968;2023-03-23T04:01:15;4.28;;;1.17;;
46439;SDS011;32138;50.966;6.968;2023-03-23T04:02:18;1.67;;;0.98;;
46439;SDS011;32138;50.966;6.968;2023-03-23T04:03:20;1.70;;;1.20;;
46439;SDS011;32138;50.966;6.968;2023-03-23T04:04:20;2.50;;;1.40;;
46439;SDS011;32138;50.966;6.968;2023-03-23T04:05:24;2.03;;;1.33;;
46439;SDS011;32138;50.966;6.968;2023-03-23T04:06:28;2.60;;;1.52;;
46439;SDS011;32138;50.966;6.968;2023-03-23T04:07:29;2.45;;;1.15;;
46439;SDS011;32138;50.966;6.968;2023-03-23T04:08:30;2.70;;;1.55;;
46439;SDS011;32138;50.966;6.968;2023-03-23T04:09:31;2.35;;;1.00;;
46439;SDS011;32138;50.966;6.968;2023-03-23T04:10:32;2.13;;;1.33;;
46439;SDS011;32138;50.966;6.968;2023-03-23T04:11:33;1.60;;;1.00;;
46439;SDS011;32138;50.966;6.968;2023-03-23T04:12:35;1.75;;;1.08;;
46439;SDS011;32138;50.966;6.968;2023-03-23T04:13:36;2.15;;;1.27;;
46439;SDS011;32138;50.966;6.968;2023-03-23T04:14:37;3.17;;;1.52;;
46439;SDS011;32138;50.966;6.968;2023-03-23T04:15:37;2.08;;;1.10;;
46439;SDS011;32138;50.966;6.968;2023-03-23T04:16:39;2.45;;;1.20;;
46439;SDS011;32138;50.966;6.968;2023-03-23T04:17:40;1.88;;;1.00;;
46439;SDS011;32138;50.966;6.968;2023-03-23T04:18:42;1.83;;;1.05;;
46439;SDS011;32138;50.966;6.968;2023-03-23T04:19:43;2.33;;;1.35;;
46439;SDS011;32138;50.966;6.968;2023-03-23T04:20:47;2.80;;;1.10;;
46439;SDS011;32138;50.966;6.968;2023-03-23T04:21:49;3.05;;;1.25;;
46439;SDS011;32138;50.966;6.968;2023-03-23T04:22:50;2.10;;;1.10;;
46439;SDS011;32138;50.966;6.968;2023-03-23T04:23:52;3.03;;;1.50;;
46439;SDS011;32138;50.966;6.968;2023-03-23T04:24:53;2.83;;;1.30;;
46439;SDS011;32138;50.966;6.968;2023-03-23T04:25:54;2.35;;;1.25;;
46439;SDS011;32138;50.966;6.968;2023-03-23T04:26:57;1.67;;;1.30;;
46439;SDS011;32138;50.966;6.968;2023-03-23T04:27:58;4.75;;;1.52;;
46439;SDS011;32138;50.966;6.968;2023-03-23T04:29:01;1.92;;;1.30;;
46439;SDS011;32138;50.966;6.968;2023-03-23T04:30:02;3.60;;;1.30;;
46439;SDS011;32138;50.966;6.968;2023-03-23T04:31:04;2.28;;;1.48;;
46439;SDS011;32138;50.966;6.968;2023-03-23T04:32:05;3.25;;;1.40;;
46439;SDS011;32138;50.966;6.968;2023-03-23T04:33:06;2.88;;;1.30;;
46439;SDS011;32138;50.966;6.968;2023-03-23T04:34:07;2.33;;;1.35;;
46439;SDS011;32138;50.966;6.968;2023-03-23T04:35:10;3.03;;;1.10;;
46439;SDS011;32138;50.966;6.968;2023-03-23T04:36:13;2.08;;;1.27;;
46439;SDS011;32138;50.966;6.968;2023-03-23T04:37:15;4.75;;;1.50;;
46439;SDS011;32138;50.966;6.968;2023-03-23T04:38:16;2.78;;;1.23;;
46439;SDS011;32138;50.966;6.968;2023-03-23T04:39:20;4.07;;;1.48;;
46439;SDS011;32138;50.966;6.968;2023-03-23T04:40:21;3.22;;;1.55;;
46439;SDS011;32138;50.966;6.968;2023-03-23T04:41:23;5.20;;;1.30;;
46439;SDS011;32138;50.966;6.968;2023-03-23T04:42:24;3.10;;;1.33;;
46439;SDS011;32138;50.966;6.968;2023-03-23T04:43:26;3.58;;;1.52;;
46439;SDS011;32138;50.966;6.968;2023-03-23T04:44:28;3.65;;;2.10;;
46439;SDS011;32138;50.966;6.968;2023-03-23T04:45:33;2.65;;;1.40;;
46439;SDS011;32138;50.966;6.968;2023-03-23T04:46:37;2.10;;;1.20;;
46439;SDS011;32138;50.966;6.968;2023-03-23T04:47:38;4.57;;;1.50;;
46439;SDS011;32138;50.966;6.968;2023-03-23T04:48:40;3.53;;;1.75;;
46439;SDS011;32138;50.966;6.968;2023-03-23T04:49:40;3.13;;;1.48;;
46439;SDS011;32138;50.966;6.968;2023-03-23T04:50:42;1.92;;;1.20;;
46439;SDS011;32138;50.966;6.968;2023-03-23T04:51:43;1.98;;;1.42;;
46439;SDS011;32138;50.966;6.968;2023-03-23T04:52:44;1.85;;;1.35;;
46439;SDS011;32138;50.966;6.968;2023-03-23T04:53:45;3.28;;;1.40;;
46439;SDS011;32138;50.966;6.968;2023-03-23T04:54:45;2.42;;;1.15;;
46439;SDS011;32138;50.966;6.968;2023-03-23T04:55:46;2.15;;;1.42;;
46439;SDS011;32138;50.966;6.968;2023-03-23T04:56:48;2.67;;;1.48;;
46439;SDS011;32138;50.966;6.968;2023-03-23T04:57:49;2.35;;;1.33;;
46439;SDS011;32138;50.966;6.968;2023-03-23T04:58:50;2.38;;;1.30;;
46439;SDS011;32138;50.966;6.968;2023-03-23T04:59:51;2.33;;;1.40;;
46439;SDS011;32138;50.966;6.968;2023-03-23T05:00:52;5.70;;;1.67;;
46439;SDS011;32138;50.966;6.968;2023-03-23T05:01:53;2.15;;;1.48;;
46439;SDS011;32138;50.966;6.968;2023-03-23T05:02:55;2.33;;;1.52;;
46439;SDS011;32138;50.966;6.968;2023-03-23T05:03:56;3.85;;;1.65;;
46439;SDS011;32138;50.966;6.968;2023-03-23T05:04:57;2.97;;;1.58;;
46439;SDS011;32138;50.966;6.968;2023-03-23T05:06:01;4.53;;;3.38;;
46439;SDS011;32138;50.966;6.968;2023-03-23T05:07:03;4.28;;;1.70;;
46439;SDS011;32138;50.966;6.968;2023-03-23T05:08:04;1.98;;;1.45;;
46439;SDS011;32138;50.966;6.968;2023-03-23T05:09:05;4.18;;;2.53;;
46439;SDS011;32138;50.966;6.968;2023-03-23T05:10:07;3.88;;;2.58;;
46439;SDS011;32138;50.966;6.968;2023-03-23T05:11:10;2.83;;;1.10;;
46439;SDS011;32138;50.966;6.968;2023-03-23T05:12:10;3.08;;;1.63;;
46439;SDS011;32138;50.966;6.968;2023-03-23T05:13:11;3.67;;;1.92;;
46439;SDS011;32138;50.966;6.968;2023-03-23T05:14:12;2.13;;;1.70;;
46439;SDS011;32138;50.966;6.968;2023-03-23T05:15:13;2.53;;;1.60;;
46439;SDS011;32138;50.966;6.968;2023-03-23T05:16:16;3.35;;;1.25;;
46439;SDS011;32138;50.966;6.968;2023-03-23T05:17:17;2.95;;;1.73;;
46439;SDS011;32138;50.966;6.968;2023-03-23T05:18:18;3.55;;;1.70;;
46439;SDS011;32138;50.966;6.968;2023-03-23T05:19:20;3.08;;;2.13;;
46439;SDS011;32138;50.966;6.968;2023-03-23T05:20:21;6.68;;;1.58;;
46439;SDS011;32138;50.966;6.968;2023-03-23T05:21:21;2.72;;;1.67;;
46439;SDS011;32138;50.966;6.968;2023-03-23T05:22:23;2.03;;;1.48;;
46439;SDS011;32138;50.966;6.968;2023-03-23T05:23:26;3.20;;;1.30;;
46439;SDS011;32138;50.966;6.968;2023-03-23T05:24:27;3.22;;;1.60;;
46439;SDS011;32138;50.966;6.968;2023-03-23T05:25:32;2.38;;;1.70;;
46439;SDS011;32138;50.966;6.968;2023-03-23T05:26:39;2.33;;;1.50;;
46439;SDS011;32138;50.966;6.968;2023-03-23T05:27:40;2.72;;;1.80;;
46439;SDS011;32138;50.966;6.968;2023-03-23T05:28:48;2.15;;;1.63;;
46439;SDS011;32138;50.966;6.968;2023-03-23T05:29:52;3.60;;;1.88;;
46439;SDS011;32138;50.966;6.968;2023-03-23T05:30:53;5.10;;;1.92;;
46439;SDS011;32138;50.966;6.968;2023-03-23T05:31:56;5.25;;;2.30;;
46439;SDS011;32138;50.966;6.968;2023-03-23T05:32:59;4.10;;;1.70;;
46439;SDS011;32138;50.966;6.968;2023-03-23T05:34:00;4.25;;;2.10;;
46439;SDS011;32138;50.966;6.968;2023-03-23T05:35:01;5.65;;;2.00;;
46439;SDS011;32138;50.966;6.968;2023-03-23T05:36:03;3.35;;;1.52;;
46439;SDS011;32138;50.966;6.968;2023-03-23T05:37:06;3.08;;;2.10;;
46439;SDS011;32138;50.966;6.968;2023-03-23T05:38:07;4.40;;;2.20;;
46439;SDS011;32138;50.966;6.968;2023-03-23T05:39:08;1.88;;;1.58;;
46439;SDS011;32138;50.966;6.968;2023-03-23T05:40:09;3.67;;;1.75;;
46439;SDS011;32138;50.966;6.968;2023-03-23T05:41:11;6.05;;;2.38;;
46439;SDS011;32138;50.966;6.968;2023-03-23T05:42:13;5.07;;;1.90;;
46439;SDS011;32138;50.966;6.968;2023-03-23T05:43:14;5.60;;;2.22;;
46439;SDS011;32138;50.966;6.968;2023-03-23T05:44:14;4.22;;;2.08;;
46439;SDS011;32138;50.966;6.968;2023-03-23T05:45:15;5.50;;;2.30;;
46439;SDS011;32138;50.966;6.968;2023-03-23T05:46:16;2.70;;;1.70;;
46439;SDS011;32138;50.966;6.968;2023-03-23T05:47:18;3.60;;;1.95;;
46439;SDS011;32138;50.966;6.968;2023-03-23T05:48:18;2.65;;;1.70;;
46439;SDS011;32138;50.966;6.968;2023-03-23T05:49:20;4.80;;;2.38;;
46439;SDS011;32138;50.966;6.968;2023-03-23T05:50:20;6.20;;;2.42;;
46439;SDS011;32138;50.966;6.968;2023-03-23T05:51:21;3.05;;;1.92;;
46439;SDS011;32138;50.966;6.968;2023-03-23T05:52:22;4.75;;;2.10;;
46439;SDS011;32138;50.966;6.968;2023-03-23T05:53:26;3.80;;;2.40;;
46439;SDS011;32138;50.966;6.968;2023-03-23T05:54:27;2.70;;;2.05;;
46439;SDS011;32138;50.966;6.968;2023-03-23T05:55:28;3.28;;;2.03;;
46439;SDS011;32138;50.966;6.968;2023-03-23T05:56:29;4.15;;;1.95;;
46439;SDS011;32138;50.966;6.968;2023-03-23T05:57:30;5.35;;;2.10;;
46439;SDS011;32138;50.966;6.968;2023-03-23T05:58:32;3.55;;;2.00;;
46439;SDS011;32138;50.966;6.968;2023-03-23T05:59:33;3.67;;;2.05;;
46439;SDS011;32138;50.966;6.968;2023-03-23T06:00:34;3.28;;;2.13;;
46439;SDS011;32138;50.966;6.968;2023-03-23T06:01:35;8.20;;;2.33;;
46439;SDS011;32138;50.966;6.968;2023-03-23T06:02:37;4.22;;;2.25;;
46439;SDS011;32138;50.966;6.968;2023-03-23T06:03:38;3.20;;;2.00;;
46439;SDS011;32138;50.966;6.968;2023-03-23T06:04:39;3.45;;;2.17;;
46439;SDS011;32138;50.966;6.968;2023-03-23T06:05:44;3.03;;;2.05;;
46439;SDS011;32138;50.966;6.968;2023-03-23T06:06:45;4.13;;;2.10;;
46439;SDS011;32138;50.966;6.968;2023-03-23T06:07:49;2.92;;;1.75;;
46439;SDS011;32138;50.966;6.968;2023-03-23T06:08:50;5.55;;;2.58;;
46439;SDS011;32138;50.966;6.968;2023-03-23T06:09:52;3.08;;;2.05;;
46439;SDS011;32138;50.966;6.968;2023-03-23T06:10:53;4.90;;;2.40;;
46439;SDS011;32138;50.966;6.968;2023-03-23T06:11:53;4.65;;;2.10;;
46439;SDS011;32138;50.966;6.968;2023-03-23T06:12:54;4.53;;;2.33;;
46439;SDS011;32138;50.966;6.968;2023-03-23T06:13:55;3.70;;;2.10;;
46439;SDS011;32138;50.966;6.968;2023-03-23T06:14:57;5.20;;;2.50;;
46439;SDS011;32138;50.966;6.968;2023-03-23T06:15:58;3.15;;;2.05;;
46439;SDS011;32138;50.966;6.968;2023-03-23T06:16:58;4.63;;;2.30;;
46439;SDS011;32138;50.966;6.968;2023-03-23T06:18:00;3.88;;;2.35;;
46439;SDS011;32138;50.966;6.968;2023-03-23T06:19:02;3.92;;;2.42;;
46439;SDS011;32138;50.966;6.968;2023-03-23T06:20:04;4.53;;;2.70;;
46439;SDS011;32138;50.966;6.968;2023-03-23T06:21:10;7.90;;;2.90;;
46439;SDS011;32138;50.966;6.968;2023-03-23T06:22:12;4.15;;;2.53;;
46439;SDS011;32138;50.966;6.968;2023-03-23T06:23:14;3.42;;;2.17;;
46439;SDS011;32138;50.966;6.968;2023-03-23T06:24:15;6.13;;;3.05;;
46439;SDS011;32138;50.966;6.968;2023-03-23T06:25:16;7.65;;;2.80;;
46439;SDS011;32138;50.966;6.968;2023-03-23T06:26:17;4.25;;;2.05;;
46439;SDS011;32138;50.966;6.968;2023-03-23T06:27:19;6.15;;;2.65;;
46439;SDS011;32138;50.966;6.968;2023-03-23T06:28:20;4.57;;;2.20;;
46439;SDS011;32138;50.966;6.968;2023-03-23T06:29:21;3.13;;;2.40;;
46439;SDS011;32138;50.966;6.968;2023-03-23T06:30:22;4.90;;;2.15;;
46439;SDS011;32138;50.966;6.968;2023-03-23T06:31:23;3.58;;;2.40;;
46439;SDS011;32138;50.966;6.968;2023-03-23T06:32:25;7.63;;;4.10;;
46439;SDS011;32138;50.966;6.968;2023-03-23T06:33:29;6.22;;;2.40;;
46439;SDS011;32138;50.966;6.968;2023-03-23T06:34:30;5.82;;;2.78;;
46439;SDS011;32138;50.966;6.968;2023-03-23T06:35:32;3.17;;;2.10;;
46439;SDS011;32138;50.966;6.968;2023-03-23T06:36:33;5.32;;;2.55;;
46439;SDS011;32138;50.966;6.968;2023-03-23T06:37:35;5.45;;;2.38;;
46439;SDS011;32138;50.966;6.968;2023-03-23T06:38:36;7.07;;;2.15;;
46439;SDS011;32138;50.966;6.968;2023-03-23T06:39:37;7.15;;;2.97;;
46439;SDS011;32138;50.966;6.968;2023-03-23T06:40:38;5.05;;;2.33;;
46439;SDS011;32138;50.966;6.968;2023-03-23T06:41:39;4.00;;;2.30;;
46439;SDS011;32138;50.966;6.968;2023-03-23T06:42:40;8.05;;;2.85;;
46439;SDS011;32138;50.966;6.968;2023-03-23T06:43:41;7.60;;;2.58;;